Time;durP1;ratioP1;P1;durP2;ratioP2;P2;SDS_P1;SDS_P2;PMS_P1;PMS_P2;Temp;Humidity;BMP_temperature;BMP_pressure;BME280_temperature;BME280_humidity;BME280_pressure;Samples;Min_cycle;Max_cycle;Signal;HPM_P1;HPM_P2
2023/05/09 00:01:49;;;;;;;28.57;17.27;;;7.20;99.90;;;;;;5053960;28;20607;-74
2023/05/09 00:04:16;;;;;;;30.30;16.80;;;7.10;99.90;;;;;;5053214;28;20199;-75
2023/05/09 00:06:43;;;;;;;29.57;15.80;;;7.10;99.90;;;;;;5053174;28;20245;-75
2023/05/09 00:09:11;;;;;;;26.60;16.30;;;7.10;99.90;;;;;;5053395;28;20213;-75
2023/05/09 00:11:38;;;;;;;28.80;15.53;;;6.90;99.90;;;;;;5053704;28;20218;-75
2023/05/09 00:14:05;;;;;;;29.47;15.83;;;6.90;99.90;;;;;;5055002;28;20217;-75
2023/05/09 00:16:32;;;;;;;26.97;15.47;;;6.80;99.90;;;;;;5054590;28;20245;-75
2023/05/09 00:18:59;;;;;;;32.63;15.50;;;6.80;99.90;;;;;;5054899;28;20561;-75
2023/05/09 00:21:27;;;;;;;28.10;15.20;;;6.60;99.90;;;;;;5054532;28;20203;-75
2023/05/09 00:23:54;;;;;;;26.03;14.80;;;6.60;99.90;;;;;;5053669;28;20201;-75
2023/05/09 00:26:21;;;;;;;26.57;15.07;;;6.50;99.90;;;;;;5054217;28;20218;-75
2023/05/09 00:28:48;;;;;;;25.93;14.33;;;6.50;99.90;;;;;;5052879;28;20203;-75
2023/05/09 00:31:15;;;;;;;26.17;15.37;;;6.40;99.90;;;;;;5053491;28;20530;-74
2023/05/09 00:33:42;;;;;;;26.07;14.80;;;6.60;99.90;;;;;;5052741;28;20625;-75
2023/05/09 00:36:09;;;;;;;26.60;14.77;;;6.50;99.90;;;;;;5036305;28;20206;-75
2023/05/09 00:38:37;;;;;;;25.70;14.13;;;6.50;99.90;;;;;;5052642;28;20522;-76
2023/05/09 00:41:04;;;;;;;28.03;15.33;;;6.40;99.90;;;;;;5053980;28;20581;-76
2023/05/09 00:43:31;;;;;;;28.03;14.57;;;6.30;99.90;;;;;;5052471;28;20195;-75
2023/05/09 00:45:57;;;;;;;25.70;14.80;;;6.40;99.90;;;;;;5052826;28;20237;-75
2023/05/09 00:48:25;;;;;;;26.57;14.97;;;6.40;99.90;;;;;;5053716;28;20228;-74
2023/05/09 00:50:51;;;;;;;23.20;14.67;;;6.40;99.90;;;;;;5054097;28;20199;-74
2023/05/09 00:53:19;;;;;;;25.27;15.00;;;6.40;99.90;;;;;;5052455;28;20564;-74
2023/05/09 00:55:46;;;;;;;27.73;15.37;;;6.30;99.90;;;;;;5052103;28;20261;-74
2023/05/09 00:58:14;;;;;;;26.50;15.63;;;6.30;99.90;;;;;;5052422;28;20237;-73
2023/05/09 01:00:42;;;;;;;28.57;15.83;;;6.20;99.90;;;;;;5052428;28;20294;-74
2023/05/09 01:03:11;;;;;;;24.47;14.73;;;6.20;99.90;;;;;;5054155;28;20274;-73
2023/05/09 01:06:02;;;;;;;25.57;15.80;;;6.20;99.90;;;;;;5052904;28;20218;-74
2023/05/09 01:08:58;;;;;;;27.67;15.73;;;6.20;99.90;;;;;;5052076;28;20202;-74
2023/05/09 01:11:51;;;;;;;27.50;15.03;;;6.10;99.90;;;;;;5051063;28;20673;-74
2023/05/09 01:14:43;;;;;;;25.73;14.70;;;6.10;99.90;;;;;;5037095;28;20202;-74
2023/05/09 01:17:17;;;;;;;27.43;15.70;;;6.00;99.90;;;;;;5034678;28;20198;-73
2023/05/09 01:19:53;;;;;;;26.87;15.13;;;6.00;99.90;;;;;;5050959;28;20685;-74
2023/05/09 01:22:28;;;;;;;26.53;14.80;;;5.90;99.90;;;;;;5034206;28;20644;-74
2023/05/09 01:25:01;;;;;;;26.83;15.23;;;5.90;99.90;;;;;;5051101;28;20249;-74
2023/05/09 01:27:43;;;;;;;25.60;14.87;;;5.90;99.90;;;;;;5034431;28;20345;-76
2023/05/09 01:30:12;;;;;;;24.40;14.33;;;5.90;99.90;;;;;;5033856;28;20294;-75
2023/05/09 01:32:42;;;;;;;29.63;15.40;;;5.80;99.90;;;;;;5051330;28;20218;-74
2023/05/09 01:35:13;;;;;;;26.37;14.97;;;5.80;99.90;;;;;;5033912;28;20210;-74
2023/05/09 01:37:43;;;;;;;27.00;14.93;;;5.80;99.90;;;;;;5033704;28;20222;-73
2023/05/09 01:40:15;;;;;;;28.23;14.87;;;5.80;99.90;;;;;;5033969;28;20233;-74
2023/05/09 01:42:47;;;;;;;25.60;14.80;;;5.70;99.90;;;;;;5050626;28;20207;-74
2023/05/09 01:45:15;;;;;;;27.23;15.07;;;5.70;99.90;;;;;;5033984;28;20210;-74
2023/05/09 01:47:43;;;;;;;25.87;14.57;;;5.70;99.90;;;;;;5035207;28;20321;-74
2023/05/09 01:50:11;;;;;;;25.23;14.83;;;5.60;99.90;;;;;;5051563;28;20194;-74
2023/05/09 01:52:40;;;;;;;26.53;14.53;;;5.70;99.90;;;;;;5051318;28;20225;-74
2023/05/09 01:55:08;;;;;;;23.07;14.13;;;5.60;99.90;;;;;;5051240;28;20628;-75
2023/05/09 01:57:37;;;;;;;26.43;14.90;;;5.60;99.90;;;;;;5050804;28;20543;-75
2023/05/09 02:00:06;;;;;;;25.23;15.53;;;5.70;99.90;;;;;;5051477;28;20206;-75
2023/05/09 02:02:34;;;;;;;28.90;15.13;;;5.70;99.90;;;;;;5051481;28;20208;-75
2023/05/09 02:05:02;;;;;;;24.93;14.53;;;5.60;99.90;;;;;;5051052;28;20289;-75
2023/05/09 02:07:29;;;;;;;23.87;13.90;;;5.60;99.90;;;;;;5051233;28;20562;-75
2023/05/09 02:09:57;;;;;;;24.53;14.33;;;5.60;99.90;;;;;;5051079;28;20251;-74
2023/05/09 02:12:25;;;;;;;24.93;14.63;;;5.60;99.90;;;;;;5052593;28;20191;-72
2023/05/09 02:14:52;;;;;;;24.27;14.63;;;5.50;99.90;;;;;;5050702;28;20214;-75
2023/05/09 02:17:20;;;;;;;24.37;14.43;;;5.40;99.90;;;;;;5052140;28;20278;-74
2023/05/09 02:19:47;;;;;;;27.77;14.70;;;5.40;99.90;;;;;;5033856;28;20199;-74
2023/05/09 02:22:14;;;;;;;29.00;15.50;;;5.30;99.90;;;;;;5050754;28;20201;-75
2023/05/09 02:24:43;;;;;;;28.43;16.33;;;5.30;99.90;;;;;;5050739;28;20199;-75
2023/05/09 02:27:11;;;;;;;29.40;15.37;;;5.30;99.90;;;;;;5050504;28;20586;-75
2023/05/09 02:29:43;;;;;;;27.47;15.57;;;5.30;99.90;;;;;;5050806;28;20234;-74
2023/05/09 02:32:15;;;;;;;28.90;15.53;;;5.30;99.90;;;;;;5050773;28;20215;-73
2023/05/09 02:34:43;;;;;;;26.83;15.70;;;5.20;99.90;;;;;;5050752;28;20224;-75
2023/05/09 02:37:14;;;;;;;27.03;15.30;;;5.20;99.90;;;;;;5050663;28;20224;-74
2023/05/09 02:39:41;;;;;;;26.63;14.97;;;5.10;99.90;;;;;;5050624;28;20212;-74
2023/05/09 02:42:10;;;;;;;29.07;16.50;;;5.20;99.90;;;;;;5051313;28;20314;-76
2023/05/09 02:44:37;;;;;;;27.67;16.47;;;5.10;99.90;;;;;;5034851;28;20289;-76
2023/05/09 02:47:06;;;;;;;30.10;16.60;;;5.10;99.90;;;;;;5050893;28;20709;-73
2023/05/09 02:49:33;;;;;;;28.17;16.17;;;5.00;99.90;;;;;;5051330;28;20205;-74
2023/05/09 02:52:00;;;;;;;29.03;16.33;;;5.00;99.90;;;;;;5051034;28;20216;-73
2023/05/09 02:54:27;;;;;;;31.33;17.33;;;5.00;99.90;;;;;;5050601;28;20249;-74
2023/05/09 02:56:54;;;;;;;29.17;16.80;;;4.90;99.90;;;;;;5050346;28;20231;-74
2023/05/09 02:59:21;;;;;;;30.17;17.07;;;4.90;99.90;;;;;;5051897;28;20221;-74
2023/05/09 03:01:48;;;;;;;30.40;16.53;;;5.00;99.90;;;;;;5050250;28;20203;-74
2023/05/09 03:04:16;;;;;;;31.07;17.13;;;4.90;99.90;;;;;;5033914;28;20217;-74
2023/05/09 03:06:43;;;;;;;33.07;19.43;;;4.80;99.90;;;;;;5050175;28;20295;-74
2023/05/09 03:09:10;;;;;;;30.47;18.20;;;4.90;99.90;;;;;;5050826;28;20271;-75
2023/05/09 03:11:37;;;;;;;31.70;17.90;;;4.80;99.90;;;;;;5051231;28;20198;-75
2023/05/09 03:14:05;;;;;;;30.77;17.80;;;4.80;99.90;;;;;;5052081;28;20557;-75
2023/05/09 03:16:32;;;;;;;32.50;17.90;;;4.80;99.90;;;;;;5052033;28;20219;-75
2023/05/09 03:18:59;;;;;;;30.40;17.50;;;4.80;99.90;;;;;;5050340;28;20236;-76
2023/05/09 03:21:25;;;;;;;30.57;16.53;;;4.80;99.90;;;;;;5050270;28;20233;-75
2023/05/09 03:23:52;;;;;;;28.13;16.33;;;4.80;99.90;;;;;;5050190;28;20316;-75
2023/05/09 03:26:20;;;;;;;27.90;16.07;;;4.80;99.90;;;;;;5050380;28;20239;-74
2023/05/09 03:28:47;;;;;;;27.13;16.83;;;4.80;99.90;;;;;;5050041;28;20290;-74
2023/05/09 03:31:15;;;;;;;28.73;16.10;;;4.80;99.90;;;;;;5055760;28;20193;-76
2023/05/09 03:33:42;;;;;;;29.53;17.50;;;4.80;99.90;;;;;;5054042;28;20289;-75
2023/05/09 03:36:09;;;;;;;29.50;17.50;;;4.80;99.90;;;;;;5054125;28;20301;-75
2023/05/09 03:38:36;;;;;;;28.07;16.40;;;4.80;99.90;;;;;;5054498;28;20237;-75
2023/05/09 03:41:03;;;;;;;29.63;16.77;;;4.80;99.90;;;;;;5054197;28;20678;-74
2023/05/09 03:43:30;;;;;;;28.73;16.93;;;4.80;99.90;;;;;;5038320;28;20199;-75
2023/05/09 03:45:58;;;;;;;33.47;16.53;;;4.90;99.90;;;;;;5055263;28;20202;-74
2023/05/09 03:48:25;;;;;;;29.67;16.83;;;4.90;99.90;;;;;;5055561;28;20191;-75
2023/05/09 03:50:52;;;;;;;29.77;16.73;;;5.10;99.90;;;;;;5053690;28;20201;-74
2023/05/09 03:53:19;;;;;;;27.80;16.83;;;5.00;99.90;;;;;;5053867;28;20384;-74
2023/05/09 03:55:46;;;;;;;28.27;15.53;;;5.10;99.90;;;;;;5037355;28;20233;-74
2023/05/09 03:58:14;;;;;;;24.57;14.47;;;5.10;99.90;;;;;;5055265;28;20542;-75
2023/05/09 04:00:42;;;;;;;29.77;15.03;;;5.20;99.90;;;;;;5038056;28;20202;-75
2023/05/09 04:03:09;;;;;;;24.73;14.20;;;5.20;99.90;;;;;;5054615;28;20195;-74
2023/05/09 04:05:36;;;;;;;28.13;14.40;;;5.30;99.90;;;;;;5056075;28;20209;-75
2023/05/09 04:08:05;;;;;;;22.40;13.43;;;5.30;99.90;;;;;;5055008;28;20229;-75
2023/05/09 04:10:31;;;;;;;24.00;13.43;;;5.40;99.90;;;;;;5053887;28;20198;-75
2023/05/09 04:12:58;;;;;;;23.37;13.87;;;5.50;99.90;;;;;;5036963;28;20209;-75
2023/05/09 04:15:25;;;;;;;25.10;13.13;;;5.60;99.90;;;;;;5055247;28;20175;-74
2023/05/09 04:17:52;;;;;;;23.70;13.00;;;5.70;99.90;;;;;;5053466;28;20234;-74
2023/05/09 04:20:19;;;;;;;25.73;13.40;;;5.80;99.90;;;;;;5054008;28;20205;-74
2023/05/09 04:22:48;;;;;;;22.00;12.57;;;5.80;99.90;;;;;;5039318;28;20248;-75
2023/05/09 04:25:15;;;;;;;23.90;13.10;;;5.90;99.90;;;;;;5053064;28;20727;-74
2023/05/09 04:27:43;;;;;;;20.47;12.17;;;6.00;99.90;;;;;;5053994;28;20227;-75
2023/05/09 04:30:10;;;;;;;25.57;12.90;;;6.10;99.90;;;;;;5054463;28;20650;-74
2023/05/09 04:32:38;;;;;;;23.23;12.97;;;6.20;99.90;;;;;;5054273;28;20612;-75
2023/05/09 04:35:07;;;;;;;19.67;12.10;;;6.30;99.90;;;;;;5053278;28;20202;-74
2023/05/09 04:37:34;;;;;;;21.53;13.47;;;6.40;99.90;;;;;;5053154;28;20297;-74
2023/05/09 04:40:04;;;;;;;21.97;12.17;;;6.50;99.90;;;;;;5036536;28;20290;-75
2023/05/09 04:42:32;;;;;;;18.63;11.27;;;6.60;99.90;;;;;;5051751;28;20648;-74
2023/05/09 04:44:59;;;;;;;19.73;11.10;;;6.70;99.90;;;;;;5052837;28;20537;-74
2023/05/09 04:47:26;;;;;;;20.00;11.07;;;6.80;99.90;;;;;;5052855;28;20775;-74
2023/05/09 04:49:53;;;;;;;20.03;10.60;;;6.90;99.90;;;;;;5052947;28;20203;-73
2023/05/09 04:52:20;;;;;;;18.43;9.80;;;7.00;99.90;;;;;;5052561;28;20202;-75
2023/05/09 04:54:47;;;;;;;18.53;10.30;;;7.20;99.90;;;;;;5052740;28;20194;-75
2023/05/09 04:57:14;;;;;;;16.47;9.07;;;7.40;99.90;;;;;;5053619;28;20239;-75
2023/05/09 04:59:44;;;;;;;15.23;9.23;;;7.40;99.90;;;;;;5053565;28;20187;-78
2023/05/09 05:02:12;;;;;;;15.70;8.73;;;7.50;99.90;;;;;;5056339;28;20297;-76
2023/05/09 05:04:41;;;;;;;15.90;9.20;;;7.60;99.90;;;;;;5054572;28;20189;-78
2023/05/09 05:07:08;;;;;;;16.33;9.07;;;7.80;99.90;;;;;;5052600;28;20273;-78
2023/05/09 05:09:36;;;;;;;16.67;8.47;;;7.90;99.90;;;;;;5052538;28;20252;-77
2023/05/09 05:12:06;;;;;;;14.50;8.90;;;7.90;99.90;;;;;;5052561;28;20206;-79
2023/05/09 05:14:35;;;;;;;15.83;9.27;;;8.10;99.90;;;;;;5052130;28;20251;-80
2023/05/09 05:17:02;;;;;;;17.37;8.73;;;8.30;99.90;;;;;;5052807;28;20293;-75
2023/05/09 05:19:29;;;;;;;15.60;8.97;;;8.30;99.90;;;;;;5052520;28;20191;-77
2023/05/09 05:21:56;;;;;;;17.33;8.83;;;8.30;99.90;;;;;;5052408;28;20209;-76
2023/05/09 05:24:23;;;;;;;16.37;8.77;;;8.50;99.90;;;;;;5052458;28;20203;-77
2023/05/09 05:26:50;;;;;;;16.33;9.07;;;8.60;99.90;;;;;;5051954;28;20305;-77
2023/05/09 05:29:16;;;;;;;19.30;10.43;;;8.70;99.90;;;;;;5053380;28;20195;-77
2023/05/09 05:31:44;;;;;;;16.70;9.10;;;8.80;99.90;;;;;;5052113;28;20632;-77
2023/05/09 05:34:12;;;;;;;17.53;9.20;;;9.00;99.90;;;;;;5052129;28;20203;-76
2023/05/09 05:36:38;;;;;;;17.90;8.70;;;9.00;99.90;;;;;;5035663;28;20207;-83
2023/05/09 05:39:06;;;;;;;15.73;8.90;;;9.20;99.90;;;;;;5051755;28;20257;-78
2023/05/09 05:41:35;;;;;;;13.67;7.90;;;9.30;99.90;;;;;;5036813;28;20230;-77
2023/05/09 05:44:02;;;;;;;15.13;8.30;;;9.30;99.90;;;;;;5053238;28;20407;-77
2023/05/09 05:46:29;;;;;;;13.07;8.07;;;9.30;99.90;;;;;;5051779;28;20222;-77
2023/05/09 05:48:56;;;;;;;12.20;7.33;;;9.50;99.90;;;;;;5051191;28;20203;-76
2023/05/09 05:51:24;;;;;;;11.37;7.10;;;9.50;99.90;;;;;;5052978;28;20187;-79
2023/05/09 05:53:51;;;;;;;13.17;6.93;;;9.60;99.90;;;;;;5050391;28;20711;-75
2023/05/09 05:56:19;;;;;;;13.33;6.60;;;9.70;99.90;;;;;;5048308;28;20604;-82
2023/05/09 05:58:47;;;;;;;14.60;6.60;;;9.70;99.90;;;;;;5051551;28;20293;-77
2023/05/09 06:01:14;;;;;;;11.50;6.83;;;9.80;99.90;;;;;;5064268;28;20594;-77
2023/05/09 06:03:41;;;;;;;11.50;6.30;;;9.80;99.90;;;;;;5052155;28;20283;-72
2023/05/09 06:06:11;;;;;;;11.57;6.10;;;9.90;99.90;;;;;;5062526;28;20175;-80
2023/05/09 06:08:38;;;;;;;9.77;6.07;;;10.00;99.90;;;;;;5052654;28;20203;-88
2023/05/09 06:11:05;;;;;;;11.17;6.93;;;10.10;99.90;;;;;;5060781;28;20663;-75
2023/05/09 06:13:32;;;;;;;15.70;7.23;;;10.20;99.90;;;;;;5051122;28;20581;-75
2023/05/09 06:16:00;;;;;;;12.23;6.20;;;10.30;99.90;;;;;;5056845;28;20199;-78
2023/05/09 06:18:44;;;;;;;10.03;6.40;;;10.50;99.90;;;;;;5064841;28;20191;-78
2023/05/09 06:21:10;;;;;;;14.13;6.97;;;10.70;99.90;;;;;;5051256;28;20297;-77
2023/05/09 06:23:38;;;;;;;13.93;7.47;;;10.80;99.90;;;;;;5062085;28;20194;-77
2023/05/09 06:26:16;;;;;;;12.90;6.37;;;10.90;99.90;;;;;;5070918;28;20190;-76
2023/05/09 06:28:43;;;;;;;11.37;6.80;;;11.10;99.90;;;;;;5070901;28;20205;-74
2023/05/09 06:31:10;;;;;;;10.73;6.87;;;11.20;99.90;;;;;;5067660;28;20213;-77
2023/05/09 06:33:37;;;;;;;11.70;6.23;;;11.40;99.90;;;;;;5052161;28;20195;-77
2023/05/09 06:36:04;;;;;;;10.30;6.20;;;11.50;99.90;;;;;;5052514;28;20206;-76
2023/05/09 06:38:33;;;;;;;11.10;6.27;;;11.70;99.90;;;;;;5051412;28;20199;-76
2023/05/09 06:41:00;;;;;;;11.93;6.37;;;11.80;99.90;;;;;;5051074;28;20244;-77
2023/05/09 06:43:27;;;;;;;11.33;5.37;;;11.90;99.90;;;;;;5034460;28;20202;-77
2023/05/09 06:45:53;;;;;;;8.83;5.53;;;11.90;99.90;;;;;;5051220;28;20671;-78
2023/05/09 06:48:22;;;;;;;12.10;5.50;;;12.00;99.90;;;;;;5054675;28;20312;-76
2023/05/09 06:50:49;;;;;;;11.77;5.97;;;12.10;99.90;;;;;;5070909;28;20190;-77
2023/05/09 06:53:16;;;;;;;10.60;5.40;;;12.30;99.90;;;;;;5053878;28;20253;-75
2023/05/09 06:55:43;;;;;;;7.17;4.60;;;12.40;99.90;;;;;;5070540;28;20692;-76
2023/05/09 06:58:10;;;;;;;10.10;4.70;;;12.50;99.90;;;;;;5070417;28;20209;-76
2023/05/09 07:00:38;;;;;;;9.07;4.87;;;12.70;99.90;;;;;;5072080;28;20204;-77
2023/05/09 07:03:09;;;;;;;8.30;4.20;;;12.70;99.90;;;;;;5070536;28;20202;-78
2023/05/09 07:05:36;;;;;;;8.80;4.80;;;12.90;99.90;;;;;;5069911;28;20198;-78
2023/05/09 07:08:03;;;;;;;7.23;4.20;;;12.90;99.90;;;;;;5070458;28;20225;-77
2023/05/09 07:10:30;;;;;;;4.87;3.53;;;13.20;99.90;;;;;;5071540;28;20193;-75
2023/05/09 07:12:57;;;;;;;5.47;3.10;;;13.20;99.90;;;;;;5072102;28;20289;-80
2023/05/09 07:15:25;;;;;;;3.73;2.60;;;13.30;99.90;;;;;;5070590;28;20198;-77
2023/05/09 07:18:07;;;;;;;4.60;2.50;;;13.40;99.90;;;;;;5070481;28;20201;-78
2023/05/09 07:20:34;;;;;;;4.27;2.40;;;13.50;99.90;;;;;;5070126;28;20304;-76
2023/05/09 07:23:02;;;;;;;3.53;2.33;;;13.60;95.20;;;;;;5062557;28;20504;-77
2023/05/09 07:25:29;;;;;;;3.43;2.10;;;13.60;94.20;;;;;;5050716;28;20190;-76
2023/05/09 07:27:57;;;;;;;4.07;2.40;;;13.70;92.70;;;;;;5050026;28;20228;-74
2023/05/09 07:30:24;;;;;;;4.87;2.10;;;13.80;92.90;;;;;;5050332;28;20346;-77
2023/05/09 07:32:51;;;;;;;3.90;2.30;;;13.80;90.90;;;;;;5050069;28;20198;-75
2023/05/09 07:35:19;;;;;;;3.63;2.20;;;13.90;90.30;;;;;;5050222;28;20199;-78
2023/05/09 07:37:46;;;;;;;4.27;2.43;;;14.00;90.10;;;;;;5050027;28;20251;-76
2023/05/09 07:40:13;;;;;;;4.17;2.23;;;14.10;86.80;;;;;;5051625;28;20195;-77
2023/05/09 07:42:43;;;;;;;3.60;2.10;;;14.20;87.10;;;;;;5050481;28;20199;-74
2023/05/09 07:45:11;;;;;;;3.13;2.20;;;14.40;85.60;;;;;;5033844;28;20202;-75
2023/05/09 07:47:38;;;;;;;5.53;2.30;;;14.40;84.00;;;;;;5033419;28;20230;-73
2023/05/09 07:50:05;;;;;;;3.50;2.17;;;14.60;82.40;;;;;;5051031;28;20687;-73
2023/05/09 07:52:32;;;;;;;3.53;2.13;;;14.70;82.40;;;;;;5049952;28;20205;-76
2023/05/09 07:55:00;;;;;;;5.10;2.03;;;14.80;83.80;;;;;;5033380;28;20593;-75
2023/05/09 07:57:27;;;;;;;2.70;2.00;;;14.90;81.60;;;;;;5049842;28;20711;-75
2023/05/09 07:59:54;;;;;;;4.00;2.20;;;14.90;79.10;;;;;;5033237;28;20248;-74
2023/05/09 08:02:21;;;;;;;3.13;1.93;;;14.90;75.60;;;;;;5049748;28;20648;-73
2023/05/09 08:04:48;;;;;;;5.07;2.00;;;14.90;73.90;;;;;;5049718;28;20207;-73
2023/05/09 08:07:15;;;;;;;2.97;1.90;;;15.00;72.70;;;;;;5050659;28;20207;-74
2023/05/09 08:09:42;;;;;;;4.60;2.10;;;15.10;73.80;;;;;;5049890;28;20199;-75
2023/05/09 08:12:09;;;;;;;6.07;1.80;;;15.80;71.50;;;;;;5049880;28;20197;-72
2023/05/09 08:14:36;;;;;;;2.37;1.87;;;16.70;67.30;;;;;;5050935;28;20198;-76
2023/05/09 08:17:03;;;;;;;3.25;2.05;;;17.80;65.90;;;;;;5051295;28;20449;-74
2023/05/09 08:19:30;;;;;;;3.43;1.87;;;18.50;62.10;;;;;;5053826;28;20554;-77
2023/05/09 08:21:57;;;;;;;4.40;2.00;;;19.30;60.90;;;;;;5054432;28;20548;-78
2023/05/09 08:24:24;;;;;;;4.10;1.90;;;19.70;57.40;;;;;;5033846;28;20663;-77
2023/05/09 08:26:50;;;;;;;3.70;1.80;;;19.90;55.40;;;;;;5033636;28;20668;-76
2023/05/09 08:29:17;;;;;;;3.63;2.00;;;19.80;52.60;;;;;;5034800;28;20199;-74
2023/05/09 08:31:44;;;;;;;4.03;2.10;;;20.30;52.40;;;;;;5034882;28;20226;-76
2023/05/09 08:34:12;;;;;;;4.00;1.80;;;20.60;53.80;;;;;;5033300;28;20207;-76
2023/05/09 08:36:40;;;;;;;3.63;2.10;;;20.50;52.80;;;;;;5034789;28;20521;-75
2023/05/09 08:39:08;;;;;;;2.90;2.03;;;20.70;50.90;;;;;;5034504;28;20180;-75
2023/05/09 08:41:35;;;;;;;5.00;2.10;;;20.50;49.40;;;;;;5034764;28;20198;-77
2023/05/09 08:44:03;;;;;;;2.47;1.90;;;20.50;50.80;;;;;;5033440;28;20222;-65
2023/05/09 08:46:36;;;;;;;3.10;1.92;;;20.70;51.70;;;;;;5033081;28;20199;-75
2023/05/09 08:49:07;;;;;;;4.27;1.93;;;20.40;48.00;;;;;;5032586;28;20289;-75
2023/05/09 08:51:37;;;;;;;6.33;2.30;;;20.60;49.50;;;;;;5033011;28;20191;-77
2023/05/09 08:54:05;;;;;;;3.03;2.10;;;20.90;50.60;;;;;;5032738;28;20235;-75
2023/05/09 08:56:34;;;;;;;3.47;2.03;;;21.00;50.30;;;;;;4999880;28;20251;-74
2023/05/09 08:59:01;;;;;;;3.05;2.00;;;21.00;48.90;;;;;;5033901;28;20589;-75
2023/05/09 09:01:28;;;;;;;3.37;2.10;;;21.00;48.70;;;;;;5033867;28;20196;-73
2023/05/09 09:03:55;;;;;;;4.60;2.10;;;21.10;51.30;;;;;;5032578;28;20294;-76
2023/05/09 09:06:24;;;;;;;3.47;2.07;;;21.10;49.30;;;;;;5032834;28;20307;-79
2023/05/09 09:08:55;;;;;;;3.13;2.07;;;21.10;47.90;;;;;;5033626;28;20556;-75
2023/05/09 09:11:22;;;;;;;4.27;2.20;;;20.90;48.40;;;;;;5032783;28;20230;-65
2023/05/09 09:13:52;;;;;;;3.00;1.70;;;20.50;51.80;;;;;;5032221;28;20202;-77
2023/05/09 09:16:21;;;;;;;3.50;1.98;;;20.90;55.30;;;;;;5032095;28;20546;-76
2023/05/09 09:18:51;;;;;;;2.03;1.83;;;20.70;51.90;;;;;;5032411;28;20207;-75
2023/05/09 09:21:19;;;;;;;2.57;1.70;;;20.50;52.50;;;;;;5040793;28;20282;-73
2023/05/09 09:23:47;;;;;;;3.90;1.80;;;20.30;54.10;;;;;;5052354;28;20230;-72
2023/05/09 09:26:14;;;;;;;2.73;1.83;;;20.60;54.70;;;;;;5053265;28;20609;-84
2023/05/09 09:28:42;;;;;;;7.33;2.20;;;20.60;55.60;;;;;;5052601;28;20272;-83
2023/05/09 09:31:23;;;;;;;3.17;1.80;;;20.50;54.00;;;;;;5053195;28;20715;-81
2023/05/09 09:34:02;;;;;;;4.37;1.80;;;20.20;54.50;;;;;;5054477;28;20206;-84
2023/05/09 09:36:31;;;;;;;2.43;1.80;;;20.30;53.30;;;;;;5052244;28;20199;-83
2023/05/09 09:38:59;;;;;;;3.47;1.70;;;20.50;54.10;;;;;;5046416;28;20241;-82
2023/05/09 09:41:34;;;;;;;2.23;1.90;;;20.70;51.40;;;;;;5032745;28;20199;-83
2023/05/09 09:44:16;;;;;;;4.03;1.90;;;20.90;54.60;;;;;;5032373;28;20566;-83
2023/05/09 09:46:47;;;;;;;3.00;1.70;;;21.30;51.70;;;;;;5031991;28;20701;-83
2023/05/09 09:49:16;;;;;;;2.53;1.73;;;21.50;50.90;;;;;;5034739;28;20635;-82
2023/05/09 09:51:44;;;;;;;2.87;2.00;;;21.60;50.40;;;;;;5033032;28;20199;-82
2023/05/09 09:54:12;;;;;;;4.82;2.22;;;21.40;49.70;;;;;;5033514;28;20234;-81
2023/05/09 09:56:41;;;;;;;3.25;1.88;;;21.50;51.80;;;;;;5033110;28;20266;-80
2023/05/09 09:59:16;;;;;;;3.03;2.07;;;21.80;50.00;;;;;;5031587;28;20612;-81
2023/05/09 10:02:01;;;;;;;3.27;1.90;;;22.00;51.20;;;;;;5032110;28;20209;-81
2023/05/09 10:04:35;;;;;;;3.50;2.38;;;22.00;49.30;;;;;;5033304;28;20187;-81
2023/05/09 10:07:04;;;;;;;2.87;2.10;;;22.00;48.80;;;;;;5031363;28;20199;-79
2023/05/09 10:09:34;;;;;;;5.10;2.37;;;21.80;47.40;;;;;;5033024;28;20203;-79
2023/05/09 10:12:06;;;;;;;2.97;2.10;;;21.60;47.70;;;;;;5031722;28;20268;-79
2023/05/09 10:14:35;;;;;;;5.25;2.05;;;21.50;48.50;;;;;;5032601;28;20652;-80
2023/05/09 10:17:03;;;;;;;5.50;2.22;;;21.80;47.80;;;;;;5031370;28;20202;-79
2023/05/09 10:19:32;;;;;;;3.20;2.20;;;22.10;50.30;;;;;;5031204;28;20206;-80
2023/05/09 10:22:07;;;;;;;3.55;2.25;;;22.60;49.90;;;;;;5032078;28;20237;-79
2023/05/09 10:24:39;;;;;;;2.80;2.13;;;23.10;48.90;;;;;;5032694;28;20648;-79
2023/05/09 10:27:10;;;;;;;2.88;2.33;;;23.30;48.10;;;;;;5032794;28;20588;-79
2023/05/09 10:29:45;;;;;;;3.88;2.25;;;23.20;46.40;;;;;;5031582;28;20234;-80
2023/05/09 10:32:19;;;;;;;3.00;2.13;;;22.90;48.10;;;;;;5030857;28;20601;-78
2023/05/09 10:34:50;;;;;;;5.15;2.55;;;23.00;46.30;;;;;;5031337;28;20188;-77
2023/05/09 10:37:17;;;;;;;3.83;2.20;;;23.30;46.10;;;;;;5033027;28;20187;-77
2023/05/09 10:39:45;;;;;;;4.05;2.15;;;23.30;48.30;;;;;;5030256;28;20218;-79
2023/05/09 10:42:13;;;;;;;2.70;2.10;;;23.60;46.80;;;;;;5032220;28;20252;-77
2023/05/09 10:44:40;;;;;;;2.97;2.40;;;23.60;45.70;;;;;;5030625;28;20286;-77
2023/05/09 10:47:08;;;;;;;2.50;2.03;;;23.40;45.70;;;;;;5030777;28;20206;-76
2023/05/09 10:49:35;;;;;;;3.85;2.15;;;23.60;45.20;;;;;;5031745;28;20215;-80
2023/05/09 10:52:03;;;;;;;3.17;2.20;;;23.50;46.30;;;;;;5030987;28;20298;-81
2023/05/09 10:54:33;;;;;;;3.97;2.10;;;23.70;44.40;;;;;;5032201;28;20215;-79
2023/05/09 10:57:00;;;;;;;4.68;2.28;;;23.40;45.10;;;;;;5031074;28;20219;-80
2023/05/09 10:59:37;;;;;;;3.03;2.30;;;23.50;45.00;;;;;;5031144;28;20226;-80
2023/05/09 11:02:10;;;;;;;3.40;2.30;;;24.10;47.40;;;;;;5031771;28;20274;-78
2023/05/09 11:04:38;;;;;;;3.53;2.20;;;24.80;47.60;;;;;;5031799;28;20286;-79
2023/05/09 11:07:25;;;;;;;4.18;2.40;;;25.10;44.70;;;;;;5031824;28;20192;-78
2023/05/09 11:10:07;;;;;;;2.78;2.10;;;24.80;41.50;;;;;;5031549;28;20223;-78
2023/05/09 11:12:51;;;;;;;2.45;1.85;;;24.60;42.40;;;;;;5030622;28;20203;-78
2023/05/09 11:15:18;;;;;;;3.15;2.30;;;24.60;43.40;;;;;;5031822;28;20249;-80
2023/05/09 11:17:50;;;;;;;5.00;1.92;;;24.60;42.60;;;;;;5013372;28;20577;-79
2023/05/09 11:20:17;;;;;;;2.63;2.15;;;24.90;42.30;;;;;;5031800;28;20215;-80
2023/05/09 11:22:45;;;;;;;3.70;2.42;;;24.90;41.70;;;;;;5031058;28;20206;-80
2023/05/09 11:25:14;;;;;;;3.05;1.98;;;24.50;42.60;;;;;;5056089;28;20206;-77
2023/05/09 11:27:47;;;;;;;4.22;2.03;;;24.60;41.60;;;;;;5065512;28;20187;-79
2023/05/09 11:30:16;;;;;;;2.30;1.90;;;24.40;41.10;;;;;;5050169;28;20202;-80
2023/05/09 11:32:50;;;;;;;2.85;1.90;;;23.80;40.50;;;;;;5060962;28;20671;-80
2023/05/09 11:35:20;;;;;;;2.40;1.90;;;24.30;40.80;;;;;;5070300;28;20641;-81
2023/05/09 11:37:54;;;;;;;3.22;1.80;;;24.80;41.10;;;;;;5071968;28;20194;-80
2023/05/09 11:40:21;;;;;;;3.60;2.25;;;25.10;42.30;;;;;;5066979;28;20197;-80
2023/05/09 11:42:52;;;;;;;2.45;2.15;;;24.20;39.70;;;;;;5050075;28;20557;-78
2023/05/09 11:45:28;;;;;;;2.40;2.05;;;23.90;42.00;;;;;;5049993;28;20290;-77
2023/05/09 11:47:57;;;;;;;3.03;1.83;;;23.90;42.70;;;;;;5049826;28;20187;-82
2023/05/09 11:50:24;;;;;;;3.63;2.00;;;24.30;42.30;;;;;;5051310;28;20364;-85
2023/05/09 11:52:52;;;;;;;4.70;2.00;;;24.60;42.20;;;;;;5037511;28;20665;-83
2023/05/09 11:55:21;;;;;;;2.70;2.00;;;24.70;40.60;;;;;;5053943;28;20198;-79
2023/05/09 11:57:51;;;;;;;3.08;2.17;;;24.40;40.70;;;;;;5061396;28;20621;-81
2023/05/09 12:00:20;;;;;;;5.22;2.20;;;23.60;41.50;;;;;;5074009;28;20198;-79
2023/05/09 12:02:48;;;;;;;8.40;2.28;;;23.10;41.60;;;;;;5075121;28;20272;-80
2023/05/09 12:05:17;;;;;;;3.05;2.00;;;23.20;42.40;;;;;;5074376;28;20197;-78
2023/05/09 12:07:45;;;;;;;3.13;2.17;;;23.60;42.00;;;;;;5074908;28;20292;-82
2023/05/09 12:10:22;;;;;;;4.18;2.10;;;23.80;41.90;;;;;;5074453;28;20663;-78
2023/05/09 12:12:50;;;;;;;5.57;1.90;;;24.10;42.30;;;;;;5073642;28;20200;-75
2023/05/09 12:15:19;;;;;;;4.15;2.10;;;24.30;42.50;;;;;;5074866;28;20190;-76
2023/05/09 12:18:03;;;;;;;4.00;2.30;;;24.60;41.80;;;;;;5073410;28;20205;-82
2023/05/09 12:20:40;;;;;;;3.08;2.13;;;24.70;40.90;;;;;;5074311;28;20276;-79
2023/05/09 12:23:13;;;;;;;3.33;2.08;;;25.20;41.60;;;;;;5075081;28;20573;-83
2023/05/09 12:25:54;;;;;;;3.80;2.00;;;25.90;41.30;;;;;;5056843;28;20198;-83
2023/05/09 12:28:25;;;;;;;4.18;2.28;;;26.10;39.40;;;;;;5057164;28;20305;-85
2023/05/09 12:30:53;;;;;;;2.95;2.00;;;25.60;38.90;;;;;;5073766;28;20301;-80
2023/05/09 12:33:21;;;;;;;2.38;2.00;;;25.40;40.00;;;;;;5055393;28;20282;-81
2023/05/09 12:36:06;;;;;;;2.67;2.10;;;25.50;40.00;;;;;;5053729;28;20719;-81
2023/05/09 12:38:33;;;;;;;2.85;2.00;;;25.20;39.50;;;;;;5053642;28;20202;-78
2023/05/09 12:41:06;;;;;;;3.45;2.00;;;25.60;40.70;;;;;;5054479;28;20191;-81
2023/05/09 12:43:48;;;;;;;2.97;2.17;;;26.00;40.40;;;;;;5052928;28;20640;-80
2023/05/09 12:46:20;;;;;;;4.43;1.90;;;26.10;38.60;;;;;;5053099;28;20202;-85
2023/05/09 12:48:48;;;;;;;4.32;2.00;;;26.10;38.80;;;;;;5053367;28;20257;-86
2023/05/09 12:51:19;;;;;;;2.40;2.17;;;26.10;38.70;;;;;;5060176;28;20306;-85
2023/05/09 12:53:47;;;;;;;3.90;2.00;;;26.30;39.10;;;;;;5055832;28;20729;-86